Impacts METAR Board
IDs:

KIAD - Washington/Dulles In, VA, US

Updated at: 0800 UTC 19 Jun 2018
Potential Impact None Slight Moderate High
Time 18/20Z 18/21Z 18/22Z 18/23Z 19/00Z 19/01Z 19/02Z 19/03Z 19/04Z 19/05Z 19/06Z 19/07Z 19/08Z
Temp93 91 91 90 88 85 82 81 78 77 76 75 75
Dewpt73 73 74 75 75 75 74 73 72 72 72 72 72
Altim29.96 29.93 29.92 29.90 29.89 29.89 29.90 29.91 29.90 29.90 29.88 29.86 29.86
VIS10 10 10 10 10 10 10 10 10 10 10 10 10
CIG-- 75 70 220 220 -- 170 -- -- 250 250 250 250
CoverFEWBKNBKNBKNBKNSCTBKNSCTSCTBKNBKNBKNBKN
FltCatVFRVFRVFRVFRVFRVFRVFRVFRVFRVFRVFRVFRVFR
WX--------------------------
WDir0260220210200220190200190170180180190
WSpd0 6 8 9 9 5 7 7 7 3 4 3 3
WGst-- -- -- -- -- -- -- -- -- -- -- -- --
Raw hourly METARs
KIAD 181952Z 00000KT 10SM FEW050 34/23 A2996 RMK AO2 SLP142 T03390228
KIAD 182052Z 26006KT 10SM SCT055 BKN075 BKN230 33/23 A2993 RMK AO2 SLP133 T03280228 58023
KIAD 182152Z 22008KT 10SM SCT055 BKN070 BKN220 33/23 A2992 RMK AO2 RAB2054E06 SLP128 P0000 T03280233
KIAD 182252Z 21009KT 10SM SCT120 BKN220 32/24 A2990 RMK AO2 SLP121 T03220239
KIAD 182352Z 20009KT 10SM FEW085 SCT120 BKN220 31/24 A2989 RMK AO2 SLP118 60000 T03110239 10344 20311 56015
KIAD 190052Z 22005KT 10SM FEW085 SCT230 29/24 A2989 RMK AO2 SLP118 T02940239
KIAD 190152Z 19007KT 10SM BKN170 BKN230 28/23 A2990 RMK AO2 SLP122 T02780233
KIAD 190252Z 20007KT 10SM FEW140 SCT250 27/23 A2991 RMK AO2 SLP125 T02720228 53007
KIAD 190352Z 19007KT 10SM FEW120 SCT250 26/22 A2990 RMK AO2 SLP122 T02560222
KIAD 190452Z 17003KT 10SM BKN250 25/22 A2990 RMK AO2 SLP120 T02500222 403440200
KIAD 190552Z 18004KT 10SM BKN250 24/22 A2988 RMK AO2 SLP114 T02440222 10311 20239 58011
KIAD 190652Z 18003KT 10SM BKN250 24/22 A2986 RMK AO2 SLP107 T02390222
KIAD 190752Z 19003KT 10SM FEW050 BKN250 24/22 A2986 RMK AO2 SLP106 T02390222



Page loaded:  08:54 UTC  |   01:54 AM Pacific  |   02:54 AM Mountain  |   03:54 AM Central  |   04:54 AM Eastern

 

ADVISORIES

FORECASTS

FORECASTS

OBSERVATIONS

USER TOOLS

ABOUT US